Time;durP1;ratioP1;P1;durP2;ratioP2;P2;SDS_P1;SDS_P2;PMS_P1;PMS_P2;Temp;Humidity;BMP_temperature;BMP_pressure;BME280_temperature;BME280_humidity;BME280_pressure;Samples;Min_cycle;Max_cycle;Signal;HPM_P1;HPM_P2
2023/11/28 00:03:37;;;;;;;10.93;5.70;;;;;;;;;;10419242;28;20052;-63
2023/11/28 00:08:38;;;;;;;12.65;6.35;;;;;;;;;;10419027;28;20036;-63
2023/11/28 00:13:40;;;;;;;17.10;5.85;;;;;;;;;;10418840;28;20025;-63
2023/11/28 00:18:42;;;;;;;12.82;6.07;;;;;;;;;;10418785;28;20057;-63
2023/11/28 00:23:44;;;;;;;13.00;5.68;;;;;;;;;;10418580;28;20021;-62
2023/11/28 00:28:46;;;;;;;8.57;5.78;;;;;;;;;;10418333;28;20017;-61
2023/11/28 00:33:51;;;;;;;8.13;5.90;;;;;;;;;;10418006;28;20061;-62
2023/11/28 00:38:53;;;;;;;10.55;5.38;;;;;;;;;;10418194;28;20033;-61
2023/11/28 00:43:55;;;;;;;14.15;5.57;;;;;;;;;;10418256;28;20517;-61
2023/11/28 00:48:56;;;;;;;8.23;5.70;;;;;;;;;;10417542;28;20053;-61
2023/11/28 00:53:58;;;;;;;11.55;6.05;;;;;;;;;;10416300;28;20050;-61
2023/11/28 00:59:00;;;;;;;8.90;4.82;;;;;;;;;;10417160;28;20053;-62
2023/11/28 01:04:01;;;;;;;12.23;5.40;;;;;;;;;;10416936;28;20370;-63
2023/11/28 01:09:03;;;;;;;11.68;5.93;;;;;;;;;;10416748;28;20036;-62
2023/11/28 01:14:05;;;;;;;11.85;5.63;;;;;;;;;;10417057;28;20453;-61
2023/11/28 01:19:07;;;;;;;12.85;5.85;;;;;;;;;;10417001;28;20034;-61
2023/11/28 01:24:08;;;;;;;7.57;5.05;;;;;;;;;;10416734;28;20104;-61
2023/11/28 01:29:10;;;;;;;9.68;5.03;;;;;;;;;;10416126;28;20032;-62
2023/11/28 01:34:12;;;;;;;8.18;5.00;;;;;;;;;;10415751;28;20037;-62
2023/11/28 01:39:18;;;;;;;10.70;5.00;;;;;;;;;;10416325;28;20030;-62
2023/11/28 01:44:20;;;;;;;10.13;4.90;;;;;;;;;;10416286;28;20025;-62
2023/11/28 01:49:21;;;;;;;7.53;5.07;;;;;;;;;;10415457;28;20490;-61
2023/11/28 01:54:24;;;;;;;7.13;4.82;;;;;;;;;;10415154;28;20393;-62
2023/11/28 01:59:26;;;;;;;8.27;5.60;;;;;;;;;;10415709;28;20025;-62
2023/11/28 02:04:28;;;;;;;8.13;4.97;;;;;;;;;;10414838;28;20029;-62
2023/11/28 02:09:29;;;;;;;9.15;5.00;;;;;;;;;;10415039;28;20072;-62
2023/11/28 02:14:31;;;;;;;7.32;4.93;;;;;;;;;;10416001;28;20056;-62
2023/11/28 02:19:33;;;;;;;5.60;4.35;;;;;;;;;;10414805;28;20040;-62
2023/11/28 02:24:41;;;;;;;7.53;4.85;;;;;;;;;;10414792;28;20022;-61
2023/11/28 02:29:46;;;;;;;8.73;4.93;;;;;;;;;;10414683;28;20034;-61
2023/11/28 02:34:48;;;;;;;7.95;5.15;;;;;;;;;;10415169;28;20039;-61
2023/11/28 02:39:51;;;;;;;6.03;4.65;;;;;;;;;;10415074;28;20029;-61
2023/11/28 02:44:53;;;;;;;10.43;4.90;;;;;;;;;;10414423;28;20057;-61
2023/11/28 02:49:54;;;;;;;6.20;4.28;;;;;;;;;;10414050;28;20049;-62
2023/11/28 02:54:56;;;;;;;7.93;4.88;;;;;;;;;;10414094;28;20088;-62
2023/11/28 02:59:58;;;;;;;5.68;4.50;;;;;;;;;;10414030;28;20533;-62
2023/11/28 03:05:00;;;;;;;5.40;4.15;;;;;;;;;;10414631;28;20040;-62
2023/11/28 03:10:01;;;;;;;7.50;5.35;;;;;;;;;;10414469;28;20033;-63
2023/11/28 03:15:04;;;;;;;8.30;4.72;;;;;;;;;;10415286;28;20037;-62
2023/11/28 03:20:09;;;;;;;7.93;4.53;;;;;;;;;;10421057;28;20021;-61
2023/11/28 03:25:14;;;;;;;8.98;4.70;;;;;;;;;;10421463;28;20114;-62
2023/11/28 03:30:16;;;;;;;9.30;4.57;;;;;;;;;;10420690;28;20021;-62
2023/11/28 03:35:19;;;;;;;6.55;4.20;;;;;;;;;;10420467;28;20037;-61
2023/11/28 03:40:21;;;;;;;7.20;4.03;;;;;;;;;;10420269;28;20034;-61
2023/11/28 03:45:22;;;;;;;6.05;4.47;;;;;;;;;;10420173;28;20113;-60
2023/11/28 03:50:24;;;;;;;6.30;4.18;;;;;;;;;;10420508;28;20052;-61
2023/11/28 03:55:26;;;;;;;5.50;4.18;;;;;;;;;;10420247;28;20029;-61
2023/11/28 04:00:27;;;;;;;6.88;4.10;;;;;;;;;;10419473;28;20080;-61
2023/11/28 04:05:29;;;;;;;6.22;4.32;;;;;;;;;;10419971;28;20032;-61
2023/11/28 04:10:30;;;;;;;5.13;4.18;;;;;;;;;;10419122;28;20026;-61
2023/11/28 04:15:33;;;;;;;6.15;3.92;;;;;;;;;;10419495;28;20417;-61
2023/11/28 04:20:36;;;;;;;4.78;3.90;;;;;;;;;;10418644;28;20115;-61
2023/11/28 04:25:37;;;;;;;7.28;4.40;;;;;;;;;;10418471;28;20033;-61
2023/11/28 04:30:39;;;;;;;7.22;4.28;;;;;;;;;;10418290;28;20026;-62
2023/11/28 04:35:41;;;;;;;6.05;4.05;;;;;;;;;;10418099;28;20033;-63
2023/11/28 04:40:42;;;;;;;7.28;3.95;;;;;;;;;;10418510;28;20048;-62
2023/11/28 04:45:44;;;;;;;5.47;4.00;;;;;;;;;;10417748;28;20022;-61
2023/11/28 04:50:46;;;;;;;5.07;3.85;;;;;;;;;;10417193;28;20038;-64
2023/11/28 04:55:47;;;;;;;4.85;3.80;;;;;;;;;;10417408;28;20076;-64
2023/11/28 05:00:50;;;;;;;5.82;3.70;;;;;;;;;;10417946;28;20104;-63
2023/11/28 05:05:51;;;;;;;4.57;3.60;;;;;;;;;;10417021;28;20047;-63
2023/11/28 05:10:53;;;;;;;4.68;3.97;;;;;;;;;;10417810;28;20021;-63
2023/11/28 05:15:54;;;;;;;4.35;3.90;;;;;;;;;;10416633;28;20103;-60
2023/11/28 05:20:56;;;;;;;4.72;4.22;;;;;;;;;;10416347;28;20072;-61
2023/11/28 05:25:57;;;;;;;5.63;3.80;;;;;;;;;;10416210;28;20021;-61
2023/11/28 05:30:58;;;;;;;4.93;3.72;;;;;;;;;;10415963;28;20488;-61
2023/11/28 05:36:00;;;;;;;4.65;3.35;;;;;;;;;;10415968;28;20017;-61
2023/11/28 05:41:02;;;;;;;5.85;4.38;;;;;;;;;;10415288;28;20067;-61
2023/11/28 05:46:05;;;;;;;5.28;3.92;;;;;;;;;;10416270;28;20043;-61
2023/11/28 05:51:08;;;;;;;4.78;3.72;;;;;;;;;;10415100;28;20061;-61
2023/11/28 05:56:11;;;;;;;5.05;3.90;;;;;;;;;;10414818;28;20025;-64
2023/11/28 06:01:15;;;;;;;5.10;3.70;;;;;;;;;;10416428;28;20036;-65
2023/11/28 06:06:17;;;;;;;5.35;3.85;;;;;;;;;;10415069;28;20025;-66
2023/11/28 06:11:20;;;;;;;4.93;3.67;;;;;;;;;;10414066;28;20029;-66
2023/11/28 06:16:21;;;;;;;4.40;3.42;;;;;;;;;;10414919;28;20092;-68
2023/11/28 06:21:23;;;;;;;4.82;3.47;;;;;;;;;;10414803;28;20369;-68
2023/11/28 06:26:25;;;;;;;5.18;3.90;;;;;;;;;;10415393;28;20033;-67
2023/11/28 06:31:26;;;;;;;6.90;4.63;;;;;;;;;;10414581;28;20523;-65
2023/11/28 06:36:28;;;;;;;10.70;5.88;;;;;;;;;;10414549;28;20104;-64
2023/11/28 06:41:29;;;;;;;9.23;5.57;;;;;;;;;;10414723;28;20021;-62
2023/11/28 06:46:32;;;;;;;11.48;6.47;;;;;;;;;;10414365;28;20029;-63
2023/11/28 06:51:33;;;;;;;8.55;6.18;;;;;;;;;;10418451;28;20045;-63
2023/11/28 06:56:35;;;;;;;10.15;6.75;;;;;;;;;;10421923;28;20029;-63
2023/11/28 07:01:40;;;;;;;15.63;6.65;;;;;;;;;;10422265;28;20026;-64
2023/11/28 07:06:42;;;;;;;13.30;7.30;;;;;;;;;;10421630;28;20033;-64
2023/11/28 07:11:43;;;;;;;15.88;6.65;;;;;;;;;;10421331;28;20037;-64
2023/11/28 07:16:44;;;;;;;16.08;7.30;;;;;;;;;;10421296;28;20086;-64
2023/11/28 07:21:46;;;;;;;16.23;6.97;;;;;;;;;;10421307;28;20032;-63
2023/11/28 07:26:48;;;;;;;14.07;6.30;;;;;;;;;;10420874;28;20021;-63
2023/11/28 07:31:50;;;;;;;27.92;6.88;;;;;;;;;;10420554;28;20191;-63
2023/11/28 07:36:51;;;;;;;12.70;6.22;;;;;;;;;;10421068;28;20017;-64
2023/11/28 07:41:52;;;;;;;11.88;5.90;;;;;;;;;;10420219;28;20105;-63
2023/11/28 07:46:54;;;;;;;14.60;6.40;;;;;;;;;;10420151;28;20481;-64
2023/11/28 07:51:56;;;;;;;10.13;6.00;;;;;;;;;;10419578;28;20397;-64
2023/11/28 07:56:58;;;;;;;12.68;6.20;;;;;;;;;;10420246;28;20044;-64
2023/11/28 08:02:00;;;;;;;8.60;6.25;;;;;;;;;;10418953;28;20033;-63
2023/11/28 08:07:01;;;;;;;12.30;6.57;;;;;;;;;;10419288;28;20029;-63
2023/11/28 08:12:03;;;;;;;13.70;6.00;;;;;;;;;;10419262;28;20022;-64
2023/11/28 08:17:06;;;;;;;9.88;5.68;;;;;;;;;;10418954;28;20053;-64
2023/11/28 08:22:07;;;;;;;14.60;5.72;;;;;;;;;;10418553;28;20036;-64
2023/11/28 08:27:09;;;;;;;11.07;6.03;;;;;;;;;;10419114;28;20088;-63
2023/11/28 08:32:10;;;;;;;12.45;5.97;;;;;;;;;;10418059;28;20064;-64
2023/11/28 08:37:12;;;;;;;11.52;5.70;;;;;;;;;;10419192;28;20033;-64
2023/11/28 08:42:14;;;;;;;18.25;6.35;;;;;;;;;;10418517;28;20083;-63
2023/11/28 08:47:16;;;;;;;13.50;5.95;;;;;;;;;;10417775;28;20068;-64
2023/11/28 08:52:19;;;;;;;14.55;5.63;;;;;;;;;;10417477;28;20078;-64
2023/11/28 08:57:21;;;;;;;8.80;5.30;;;;;;;;;;10417911;28;20021;-64
2023/11/28 09:02:23;;;;;;;10.95;5.82;;;;;;;;;;10417085;28;20079;-64
2023/11/28 09:07:24;;;;;;;10.65;5.90;;;;;;;;;;10416986;28;20037;-64
2023/11/28 09:12:26;;;;;;;11.32;5.68;;;;;;;;;;10414963;28;20041;-64
2023/11/28 09:17:28;;;;;;;13.45;5.90;;;;;;;;;;10416613;28;20025;-64
2023/11/28 09:22:29;;;;;;;9.55;5.55;;;;;;;;;;10416322;28;20026;-64
2023/11/28 09:27:31;;;;;;;9.10;5.80;;;;;;;;;;10416815;28;20100;-64
2023/11/28 09:32:32;;;;;;;9.85;6.38;;;;;;;;;;10415883;28;20095;-64
2023/11/28 09:37:35;;;;;;;9.45;5.78;;;;;;;;;;10415854;28;20064;-64
2023/11/28 09:42:40;;;;;;;8.48;5.30;;;;;;;;;;10415580;28;20037;-64
2023/11/28 09:47:43;;;;;;;12.63;5.93;;;;;;;;;;10415442;28;20079;-64
2023/11/28 09:52:47;;;;;;;8.13;5.35;;;;;;;;;;10415038;28;20095;-64
2023/11/28 09:57:50;;;;;;;10.10;5.78;;;;;;;;;;10415331;28;20025;-64
2023/11/28 10:02:56;;;;;;;11.57;5.70;;;;;;;;;;10415174;28;20034;-64
2023/11/28 10:07:58;;;;;;;6.47;5.30;;;;;;;;;;10416395;28;20021;-63
2023/11/28 10:13:00;;;;;;;7.25;5.45;;;;;;;;;;10414896;28;20076;-63
2023/11/28 10:18:03;;;;;;;11.75;5.10;;;;;;;;;;10414312;28;20033;-64
2023/11/28 10:23:06;;;;;;;7.70;5.93;;;;;;;;;;10415271;28;20059;-63
2023/11/28 10:28:08;;;;;;;11.88;5.95;;;;;;;;;;10423664;28;20021;-63
2023/11/28 10:33:10;;;;;;;7.68;5.60;;;;;;;;;;10422932;28;20031;-63
2023/11/28 10:38:17;;;;;;;7.65;5.47;;;;;;;;;;10423794;28;20483;-63
2023/11/28 10:43:18;;;;;;;9.35;6.40;;;;;;;;;;10422988;28;20163;-63
2023/11/28 10:48:20;;;;;;;8.98;5.97;;;;;;;;;;10423040;28;20033;-63
2023/11/28 10:53:24;;;;;;;9.13;5.88;;;;;;;;;;10421899;28;20049;-64
2023/11/28 10:58:28;;;;;;;10.52;5.18;;;;;;;;;;10437176;28;20052;-63
2023/11/28 11:03:31;;;;;;;10.68;5.45;;;;;;;;;;10422299;28;20021;-64
2023/11/28 11:08:33;;;;;;;9.93;5.10;;;;;;;;;;10420995;28;20029;-64
2023/11/28 11:13:55;;;;;;;9.32;6.05;;;;;;;;;;10421352;28;20025;-63
2023/11/28 11:19:00;;;;;;;8.40;5.20;;;;;;;;;;10422399;28;20100;-63
2023/11/28 11:24:02;;;;;;;9.68;5.78;;;;;;;;;;10420814;28;20025;-64
2023/11/28 11:29:24;;;;;;;10.75;5.40;;;;;;;;;;10420178;28;20108;-63
2023/11/28 11:34:49;;;;;;;8.52;4.80;;;;;;;;;;10416549;28;20045;-63
2023/11/28 11:39:52;;;;;;;8.13;5.30;;;;;;;;;;10420605;28;20087;-63
2023/11/28 11:45:02;;;;;;;10.52;6.00;;;;;;;;;;10420858;28;20074;-63
2023/11/28 11:50:06;;;;;;;7.00;5.47;;;;;;;;;;10419783;28;20132;-63
2023/11/28 11:55:13;;;;;;;7.25;5.28;;;;;;;;;;10465034;22;20511;-54
2023/11/28 12:00:15;;;;;;;6.28;4.78;;;;;;;;;;10455964;28;20032;-51
2023/11/28 12:05:16;;;;;;;8.50;5.15;;;;;;;;;;10459417;28;20025;-48
2023/11/28 12:10:16;;;;;;;9.75;5.50;;;;;;;;;;10465565;28;20041;-51
2023/11/28 12:15:20;;;;;;;6.35;4.78;;;;;;;;;;10468307;28;20024;-51
2023/11/28 12:20:21;;;;;;;8.07;5.13;;;;;;;;;;10474117;28;20352;-48
2023/11/28 12:25:23;;;;;;;7.18;4.97;;;;;;;;;;10472524;28;20020;-54
2023/11/28 12:30:24;;;;;;;8.30;5.30;;;;;;;;;;10467087;28;20035;-51
2023/11/28 12:35:28;;;;;;;8.27;5.20;;;;;;;;;;10450764;28;20471;-51
2023/11/28 12:40:28;;;;;;;6.25;4.97;;;;;;;;;;10473489;28;20089;-52
2023/11/28 12:45:31;;;;;;;9.02;4.90;;;;;;;;;;10477397;28;20040;-52
2023/11/28 12:50:32;;;;;;;7.50;5.10;;;;;;;;;;10479349;28;20483;-49
2023/11/28 12:55:32;;;;;;;6.32;4.50;;;;;;;;;;10477931;28;20044;-47
2023/11/28 13:00:33;;;;;;;6.40;4.50;;;;;;;;;;10478197;28;20067;-53
2023/11/28 13:05:34;;;;;;;8.98;4.97;;;;;;;;;;10459360;28;20032;-51
2023/11/28 13:10:35;;;;;;;6.63;5.03;;;;;;;;;;10467975;28;20391;-54
2023/11/28 13:15:35;;;;;;;9.43;4.63;;;;;;;;;;10474396;28;20091;-50
2023/11/28 13:20:36;;;;;;;10.50;5.28;;;;;;;;;;10479703;28;20074;-52
2023/11/28 13:25:37;;;;;;;7.85;4.70;;;;;;;;;;10473019;28;20032;-57
2023/11/28 13:30:37;;;;;;;8.10;4.70;;;;;;;;;;10487411;28;20156;-53
2023/11/28 13:35:39;;;;;;;7.38;5.15;;;;;;;;;;10488454;28;20499;-54
2023/11/28 13:40:44;;;;;;;6.40;4.80;;;;;;;;;;10483169;28;20034;-50
2023/11/28 13:45:45;;;;;;;6.22;4.30;;;;;;;;;;10464111;28;20033;-58
2023/11/28 13:50:46;;;;;;;6.75;4.75;;;;;;;;;;10445547;28;20032;-52
2023/11/28 13:55:46;;;;;;;8.10;4.65;;;;;;;;;;10458862;28;20044;-55
2023/11/28 14:00:47;;;;;;;6.85;4.70;;;;;;;;;;10455746;28;20021;-51
2023/11/28 14:05:47;;;;;;;6.18;4.50;;;;;;;;;;10452800;28;20033;-57
2023/11/28 14:10:48;;;;;;;7.40;4.80;;;;;;;;;;10460476;28;20255;-58
2023/11/28 14:15:49;;;;;;;6.03;4.32;;;;;;;;;;10453463;28;20101;-51
2023/11/28 14:20:50;;;;;;;8.55;4.53;;;;;;;;;;10480109;28;20031;-57
2023/11/28 14:25:50;;;;;;;7.95;4.63;;;;;;;;;;10477086;28;20048;-53
2023/11/28 14:30:51;;;;;;;10.25;4.60;;;;;;;;;;10464460;28;20037;-55
2023/11/28 14:35:52;;;;;;;8.40;4.43;;;;;;;;;;10471389;28;20029;-52
2023/11/28 14:40:52;;;;;;;7.15;4.60;;;;;;;;;;10466465;28;20051;-57
2023/11/28 14:45:53;;;;;;;7.68;4.10;;;;;;;;;;10452448;28;20016;-51
2023/11/28 14:50:53;;;;;;;6.90;5.00;;;;;;;;;;10485921;28;20066;-51
2023/11/28 14:55:54;;;;;;;8.38;4.85;;;;;;;;;;10486425;28;20055;-52
2023/11/28 15:00:54;;;;;;;7.78;4.40;;;;;;;;;;10486168;28;20029;-50
2023/11/28 15:05:57;;;;;;;11.52;4.43;;;;;;;;;;10486691;28;20371;-51
2023/11/28 15:10:58;;;;;;;7.03;4.40;;;;;;;;;;10487584;28;20028;-59
2023/11/28 15:16:00;;;;;;;5.78;4.50;;;;;;;;;;10475944;28;20024;-50
2023/11/28 15:21:01;;;;;;;7.97;4.50;;;;;;;;;;10493998;28;20123;-54
2023/11/28 15:26:01;;;;;;;7.28;4.47;;;;;;;;;;10483711;28;20036;-50
2023/11/28 15:31:02;;;;;;;8.88;4.78;;;;;;;;;;10480214;28;20572;-55
2023/11/28 15:36:03;;;;;;;6.65;4.68;;;;;;;;;;10492778;28;20497;-51
2023/11/28 15:41:04;;;;;;;5.90;4.88;;;;;;;;;;10493044;28;20028;-51
2023/11/28 15:46:04;;;;;;;6.07;4.82;;;;;;;;;;10492630;28;20310;-53
2023/11/28 15:51:06;;;;;;;7.03;4.95;;;;;;;;;;10491921;28;20383;-52
2023/11/28 15:56:07;;;;;;;8.32;4.82;;;;;;;;;;10491997;28;20212;-55
2023/11/28 16:01:08;;;;;;;7.18;4.13;;;;;;;;;;10492217;28;20027;-51
2023/11/28 16:06:15;;;;;;;6.60;4.70;;;;;;;;;;10492079;28;20032;-52
2023/11/28 16:11:15;;;;;;;10.27;4.90;;;;;;;;;;10489858;28;20129;-51
2023/11/28 16:16:16;;;;;;;7.95;5.15;;;;;;;;;;10474095;28;20044;-54
2023/11/28 16:21:23;;;;;;;8.20;5.10;;;;;;;;;;10474447;28;20083;-52
2023/11/28 16:26:25;;;;;;;6.65;4.80;;;;;;;;;;10475187;28;20029;-54
2023/11/28 16:31:26;;;;;;;7.22;4.97;;;;;;;;;;10471082;28;20032;-53
2023/11/28 16:36:26;;;;;;;8.20;4.57;;;;;;;;;;10473350;28;20032;-53
2023/11/28 16:41:27;;;;;;;8.82;4.32;;;;;;;;;;10469212;28;20708;-58
2023/11/28 16:46:27;;;;;;;5.45;4.32;;;;;;;;;;10454045;28;20025;-58
2023/11/28 16:51:28;;;;;;;6.88;4.57;;;;;;;;;;10466668;28;20140;-52
2023/11/28 16:56:29;;;;;;;7.38;4.45;;;;;;;;;;10471128;28;20020;-55
2023/11/28 17:01:31;;;;;;;8.02;4.78;;;;;;;;;;10470092;28;20051;-58
2023/11/28 17:06:32;;;;;;;5.05;4.25;;;;;;;;;;10469471;28;20521;-52
2023/11/28 17:11:32;;;;;;;9.95;4.65;;;;;;;;;;10466624;28;20016;-52
2023/11/28 17:16:39;;;;;;;8.10;4.78;;;;;;;;;;10469597;28;20115;-52
2023/11/28 17:21:40;;;;;;;5.78;3.90;;;;;;;;;;10480739;28;20786;-50
2023/11/28 17:26:43;;;;;;;8.00;4.75;;;;;;;;;;10468091;28;20138;-52
2023/11/28 17:31:45;;;;;;;7.32;4.70;;;;;;;;;;10475961;28;20036;-51
2023/11/28 17:36:45;;;;;;;5.00;4.35;;;;;;;;;;10466427;28;20029;-54
2023/11/28 17:41:46;;;;;;;4.57;4.10;;;;;;;;;;10464138;28;20033;-54
2023/11/28 17:46:47;;;;;;;6.10;4.43;;;;;;;;;;10474214;28;20033;-50
2023/11/28 17:51:48;;;;;;;13.70;5.03;;;;;;;;;;10466017;28;20110;-51
2023/11/28 17:56:50;;;;;;;7.45;4.75;;;;;;;;;;10469351;28;20051;-50
2023/11/28 18:01:51;;;;;;;10.30;5.80;;;;;;;;;;10464508;28;20036;-50
2023/11/28 18:06:52;;;;;;;5.72;4.75;;;;;;;;;;10456877;28;20721;-49
2023/11/28 18:11:52;;;;;;;7.65;5.78;;;;;;;;;;10465985;28;20082;-48
2023/11/28 18:16:53;;;;;;;10.73;6.18;;;;;;;;;;10461804;28;20036;-48
2023/11/28 18:21:53;;;;;;;11.63;6.03;;;;;;;;;;10453458;28;20161;-52
2023/11/28 18:26:54;;;;;;;9.45;6.05;;;;;;;;;;10458426;28;20024;-51
2023/11/28 18:31:56;;;;;;;10.90;5.85;;;;;;;;;;10462589;28;20024;-51
2023/11/28 18:36:56;;;;;;;8.45;6.35;;;;;;;;;;10451587;28;20025;-49
2023/11/28 18:41:57;;;;;;;8.55;5.75;;;;;;;;;;10452737;28;20492;-47
2023/11/28 18:46:57;;;;;;;12.07;6.10;;;;;;;;;;10474043;28;20033;-51
2023/11/28 18:51:58;;;;;;;10.35;5.60;;;;;;;;;;10477525;28;20045;-50
2023/11/28 18:56:59;;;;;;;11.13;6.35;;;;;;;;;;10477652;28;21541;-47
2023/11/28 19:02:00;;;;;;;16.83;6.75;;;;;;;;;;10471741;28;20024;-54
2023/11/28 19:07:00;;;;;;;25.33;9.05;;;;;;;;;;10474397;28;20069;-49
2023/11/28 19:12:01;;;;;;;28.58;8.80;;;;;;;;;;10467816;28;20076;-52
2023/11/28 19:17:02;;;;;;;14.52;7.30;;;;;;;;;;10492719;28;20433;-53
2023/11/28 19:22:03;;;;;;;15.05;7.70;;;;;;;;;;10488140;28;20364;-52
2023/11/28 19:27:04;;;;;;;20.83;8.10;;;;;;;;;;10486789;28;20024;-52
2023/11/28 19:32:05;;;;;;;16.23;7.72;;;;;;;;;;10491207;28;20020;-51
2023/11/28 19:37:06;;;;;;;15.77;8.48;;;;;;;;;;10490324;28;20067;-53
2023/11/28 19:42:07;;;;;;;15.15;8.70;;;;;;;;;;10485794;28;20108;-55
2023/11/28 19:47:08;;;;;;;15.23;8.80;;;;;;;;;;10481668;28;20202;-47
2023/11/28 19:52:08;;;;;;;21.35;8.75;;;;;;;;;;10483262;28;20234;-51
2023/11/28 19:57:09;;;;;;;13.73;8.98;;;;;;;;;;10475823;28;20036;-49
2023/11/28 20:02:10;;;;;;;21.30;9.10;;;;;;;;;;10474162;28;20376;-50
2023/11/28 20:07:11;;;;;;;16.10;9.40;;;;;;;;;;10471454;28;20409;-52
2023/11/28 20:12:13;;;;;;;16.40;9.23;;;;;;;;;;10471962;28;20028;-50
2023/11/28 20:17:15;;;;;;;16.48;8.88;;;;;;;;;;10470786;28;20017;-50
2023/11/28 20:22:17;;;;;;;15.82;9.30;;;;;;;;;;10484908;28;20036;-54
2023/11/28 20:27:17;;;;;;;14.02;8.73;;;;;;;;;;10481608;28;20032;-49
2023/11/28 20:32:18;;;;;;;14.32;8.70;;;;;;;;;;10453595;28;20041;-62
2023/11/28 20:37:18;;;;;;;18.25;9.73;;;;;;;;;;10458895;28;20037;-52
2023/11/28 20:42:23;;;;;;;16.80;9.57;;;;;;;;;;10470189;28;20020;-59
2023/11/28 20:47:24;;;;;;;13.27;8.73;;;;;;;;;;10405604;28;20049;-50
2023/11/28 20:52:25;;;;;;;15.80;9.20;;;;;;;;;;10402118;28;20045;-51
2023/11/28 20:57:26;;;;;;;15.45;9.23;;;;;;;;;;10396760;28;20033;-52
2023/11/28 21:02:28;;;;;;;13.43;8.70;;;;;;;;;;10406732;28;20033;-57
2023/11/28 21:07:29;;;;;;;14.23;8.48;;;;;;;;;;10406499;28;20032;-55
2023/11/28 21:12:30;;;;;;;14.70;9.00;;;;;;;;;;10385265;28;20487;-51
2023/11/28 21:17:32;;;;;;;12.98;8.93;;;;;;;;;;10381776;28;20317;-51
2023/11/28 21:22:33;;;;;;;14.20;9.38;;;;;;;;;;10367251;28;20061;-54
2023/11/28 21:27:34;;;;;;;13.88;9.15;;;;;;;;;;10404319;28;20391;-55
2023/11/28 21:32:34;;;;;;;13.05;9.07;;;;;;;;;;10403569;28;20037;-54
2023/11/28 21:37:35;;;;;;;14.15;8.57;;;;;;;;;;10394937;28;20092;-53
2023/11/28 21:42:36;;;;;;;21.13;8.60;;;;;;;;;;10398652;28;20376;-56
2023/11/28 21:47:37;;;;;;;11.48;8.45;;;;;;;;;;10403746;28;20041;-53
2023/11/28 21:52:37;;;;;;;24.38;8.45;;;;;;;;;;10402062;28;20052;-52
2023/11/28 21:57:39;;;;;;;15.38;8.13;;;;;;;;;;10400381;28;20025;-52
2023/11/28 22:02:39;;;;;;;14.27;8.25;;;;;;;;;;10401853;28;20025;-53
2023/11/28 22:07:40;;;;;;;17.83;8.50;;;;;;;;;;10401659;28;20029;-53
2023/11/28 22:12:41;;;;;;;17.30;8.70;;;;;;;;;;10399901;28;20559;-56
2023/11/28 22:17:43;;;;;;;14.85;8.35;;;;;;;;;;10400538;28;20052;-52
2023/11/28 22:22:43;;;;;;;10.20;7.90;;;;;;;;;;10398258;28;20049;-52
2023/11/28 22:27:44;;;;;;;10.50;7.82;;;;;;;;;;10399736;28;20140;-51
2023/11/28 22:32:45;;;;;;;11.40;8.20;;;;;;;;;;10409183;28;20060;-51
2023/11/28 22:37:46;;;;;;;11.13;7.75;;;;;;;;;;10400119;28;20021;-51
2023/11/28 22:42:47;;;;;;;12.50;6.75;;;;;;;;;;10408670;28;20125;-53
2023/11/28 22:47:48;;;;;;;13.07;7.95;;;;;;;;;;10405172;28;20032;-52
2023/11/28 22:52:49;;;;;;;12.68;7.97;;;;;;;;;;10407763;28;20049;-51
2023/11/28 22:57:50;;;;;;;12.65;8.20;;;;;;;;;;10402696;28;20037;-52
2023/11/28 23:02:51;;;;;;;15.40;7.47;;;;;;;;;;10410365;28;20034;-53
2023/11/28 23:07:51;;;;;;;10.80;7.65;;;;;;;;;;10400964;28;20481;-52
2023/11/28 23:12:52;;;;;;;13.05;7.57;;;;;;;;;;10392249;28;20033;-51
2023/11/28 23:17:53;;;;;;;12.60;7.55;;;;;;;;;;10392595;28;20045;-51
2023/11/28 23:22:53;;;;;;;10.63;7.05;;;;;;;;;;10395115;28;20034;-52
2023/11/28 23:27:55;;;;;;;13.82;6.93;;;;;;;;;;10394151;28;20033;-52
2023/11/28 23:32:55;;;;;;;11.10;7.57;;;;;;;;;;10391764;28;20056;-51
2023/11/28 23:37:56;;;;;;;10.18;6.70;;;;;;;;;;10394605;28;20037;-52
2023/11/28 23:42:57;;;;;;;11.68;7.22;;;;;;;;;;10386095;28;20026;-51
2023/11/28 23:47:57;;;;;;;10.65;7.63;;;;;;;;;;10391116;28;20484;-52
2023/11/28 23:52:58;;;;;;;11.00;7.30;;;;;;;;;;10400515;28;20042;-52
2023/11/28 23:57:59;;;;;;;9.30;6.75;;;;;;;;;;10409544;28;20025;-53
